Time;durP1;ratioP1;P1;durP2;ratioP2;P2;SDS_P1;SDS_P2;PMS_P1;PMS_P2;Temp;Humidity;BMP_temperature;BMP_pressure;BME280_temperature;BME280_humidity;BME280_pressure;Samples;Min_cycle;Max_cycle;Signal;HPM_P1;HPM_P2
2024/03/11 00:00:35;;;;;;;17.20;11.73;;;10.80;99.90;;;;;;5073332;28;20850;-70
2024/03/11 00:03:02;;;;;;;13.70;11.30;;;10.80;99.90;;;;;;5073301;28;20748;-70
2024/03/11 00:05:30;;;;;;;16.80;12.73;;;10.80;99.90;;;;;;5073074;28;20491;-70
2024/03/11 00:07:57;;;;;;;17.07;11.80;;;10.80;99.90;;;;;;5073046;28;20447;-70
2024/03/11 00:10:23;;;;;;;15.70;12.20;;;10.70;99.90;;;;;;5073316;28;20850;-69
2024/03/11 00:12:51;;;;;;;13.57;10.83;;;10.70;99.90;;;;;;5072972;28;20454;-69
2024/03/11 00:15:20;;;;;;;13.93;11.90;;;10.70;99.90;;;;;;5073037;28;20531;-69
2024/03/11 00:17:48;;;;;;;14.60;12.00;;;10.70;99.90;;;;;;5073062;28;20446;-70
2024/03/11 00:20:14;;;;;;;13.37;11.57;;;10.60;99.90;;;;;;5072937;28;20527;-70
2024/03/11 00:22:41;;;;;;;15.20;11.47;;;10.60;99.90;;;;;;5072890;28;20526;-70
2024/03/11 00:25:09;;;;;;;15.57;11.50;;;10.60;99.90;;;;;;5073090;28;20970;-70
2024/03/11 00:27:36;;;;;;;15.70;12.20;;;10.60;99.90;;;;;;5073025;28;20535;-69
2024/03/11 00:30:04;;;;;;;15.50;11.90;;;10.60;99.90;;;;;;5072886;28;20946;-70
2024/03/11 00:32:30;;;;;;;14.00;11.10;;;10.60;99.90;;;;;;5072776;28;20930;-70
2024/03/11 00:34:58;;;;;;;16.77;12.43;;;10.60;99.90;;;;;;5072727;28;21002;-69
2024/03/11 00:37:24;;;;;;;12.20;9.90;;;10.60;99.90;;;;;;5072748;28;20867;-70
2024/03/11 00:39:51;;;;;;;15.63;11.30;;;10.60;99.90;;;;;;5072709;28;20542;-70
2024/03/11 00:42:18;;;;;;;15.97;12.23;;;10.60;99.90;;;;;;5072889;28;20526;-70
2024/03/11 00:44:46;;;;;;;16.07;11.40;;;10.60;99.90;;;;;;5072768;28;20439;-70
2024/03/11 00:47:13;;;;;;;14.53;12.10;;;10.60;99.90;;;;;;5072796;28;20451;-70
2024/03/11 00:49:39;;;;;;;14.53;11.07;;;10.60;99.90;;;;;;5072618;28;20467;-70
2024/03/11 00:52:07;;;;;;;12.60;10.47;;;10.60;99.90;;;;;;5072875;28;20538;-70
2024/03/11 00:54:34;;;;;;;12.60;11.27;;;10.60;99.90;;;;;;5072756;28;20494;-70
2024/03/11 00:57:01;;;;;;;11.77;10.07;;;10.60;99.90;;;;;;5072766;28;20471;-70
2024/03/11 00:59:28;;;;;;;13.77;12.37;;;10.60;99.90;;;;;;5073262;28;20874;-70
2024/03/11 01:01:54;;;;;;;15.13;11.83;;;10.50;99.90;;;;;;5076575;28;20483;-70
2024/03/11 01:04:21;;;;;;;14.97;11.80;;;10.60;99.90;;;;;;5076441;28;20625;-70
2024/03/11 01:06:47;;;;;;;14.83;11.30;;;10.50;99.90;;;;;;5076520;28;20483;-70
2024/03/11 01:09:20;;;;;;;13.40;12.00;;;10.60;99.90;;;;;;5076564;28;20550;-70
2024/03/11 01:11:46;;;;;;;13.07;11.13;;;10.60;99.90;;;;;;5076435;28;20458;-70
2024/03/11 01:14:13;;;;;;;19.30;12.20;;;10.60;99.90;;;;;;5076318;28;20534;-70
2024/03/11 01:16:40;;;;;;;12.60;10.50;;;10.50;99.90;;;;;;5076168;28;20538;-69
2024/03/11 01:19:07;;;;;;;12.10;10.70;;;;;;;;;;5076365;28;20441;-69
2024/03/11 01:21:35;;;;;;;12.73;11.17;;;10.50;99.90;;;;;;5076307;28;20451;-70
2024/03/11 01:24:03;;;;;;;16.77;11.63;;;10.50;99.90;;;;;;5076228;28;20530;-70
2024/03/11 01:26:31;;;;;;;13.77;11.67;;;10.50;99.90;;;;;;5076063;28;20873;-70
2024/03/11 01:28:58;;;;;;;15.67;12.37;;;10.40;99.90;;;;;;5076016;28;20538;-70
2024/03/11 01:31:25;;;;;;;15.37;12.27;;;10.40;99.90;;;;;;5075864;28;20568;-70
2024/03/11 01:33:52;;;;;;;13.90;11.47;;;10.30;99.90;;;;;;5076067;28;20450;-70
2024/03/11 01:36:18;;;;;;;15.90;12.03;;;10.30;99.90;;;;;;5075979;28;20857;-70
2024/03/11 01:38:46;;;;;;;16.67;12.20;;;10.30;99.90;;;;;;5075814;28;20516;-70
2024/03/11 01:41:12;;;;;;;12.33;10.80;;;10.30;99.90;;;;;;5075878;28;20516;-70
2024/03/11 01:43:41;;;;;;;13.13;11.57;;;;;;;;;;5075818;28;20529;-70
2024/03/11 01:46:09;;;;;;;13.77;11.30;;;;;;;;;;5075577;28;20489;-70
2024/03/11 01:48:37;;;;;;;13.93;11.30;;;;;;;;;;5075799;28;20522;-70
2024/03/11 01:51:05;;;;;;;20.63;12.43;;;;;;;;;;5075728;28;20808;-70
2024/03/11 01:53:32;;;;;;;14.53;11.40;;;;;;;;;;5075655;28;20443;-70
2024/03/11 01:55:58;;;;;;;15.00;11.77;;;10.30;99.90;;;;;;5075571;28;20534;-70
2024/03/11 01:58:26;;;;;;;15.23;11.97;;;10.30;99.90;;;;;;5075381;28;20450;-70
2024/03/11 02:00:55;;;;;;;13.90;11.63;;;10.40;99.90;;;;;;5075624;28;20443;-70
2024/03/11 02:03:23;;;;;;;15.03;12.40;;;10.40;99.90;;;;;;5075385;28;20935;-70
2024/03/11 02:05:49;;;;;;;12.90;11.17;;;10.40;99.90;;;;;;5075310;28;20475;-70
2024/03/11 02:08:16;;;;;;;14.47;11.70;;;10.40;99.90;;;;;;5075385;28;20872;-70
2024/03/11 02:10:43;;;;;;;13.30;11.57;;;10.50;99.90;;;;;;5074866;28;20534;-70
2024/03/11 02:13:10;;;;;;;15.77;12.60;;;10.40;99.90;;;;;;5075200;28;20530;-70
2024/03/11 02:15:36;;;;;;;12.27;10.97;;;10.40;99.90;;;;;;5075323;28;20457;-70
2024/03/11 02:18:05;;;;;;;16.27;11.50;;;10.40;99.90;;;;;;5075326;28;20534;-70
2024/03/11 02:20:32;;;;;;;16.83;12.70;;;10.40;99.90;;;;;;5075207;28;20450;-70
2024/03/11 02:22:58;;;;;;;12.93;11.07;;;10.40;99.90;;;;;;5075072;28;20830;-70
2024/03/11 02:25:27;;;;;;;18.10;12.10;;;10.40;99.90;;;;;;5074958;28;20503;-69
2024/03/11 02:27:55;;;;;;;13.20;10.73;;;10.40;99.90;;;;;;5075199;28;20858;-70
2024/03/11 02:30:21;;;;;;;12.90;10.40;;;10.40;99.90;;;;;;5075079;28;20531;-70
2024/03/11 02:32:48;;;;;;;12.97;10.23;;;10.40;99.90;;;;;;5074824;28;20443;-70
2024/03/11 02:35:15;;;;;;;13.00;10.70;;;10.40;99.90;;;;;;5074848;28;20526;-70
2024/03/11 02:37:44;;;;;;;14.93;11.63;;;10.40;99.90;;;;;;5074847;28;20440;-70
2024/03/11 02:40:11;;;;;;;16.80;11.57;;;10.40;99.90;;;;;;5074477;28;20482;-70
2024/03/11 02:42:40;;;;;;;10.93;9.83;;;10.40;99.90;;;;;;5074877;28;20513;-70
2024/03/11 02:45:08;;;;;;;14.20;11.00;;;10.40;99.90;;;;;;5074691;28;20450;-70
2024/03/11 02:47:36;;;;;;;14.80;11.60;;;10.50;99.90;;;;;;5074659;28;20838;-70
2024/03/11 02:50:05;;;;;;;12.83;11.00;;;10.40;99.90;;;;;;5074703;28;20444;-70
2024/03/11 02:52:32;;;;;;;13.13;10.60;;;10.40;99.90;;;;;;5074500;28;20795;-69
2024/03/11 02:54:58;;;;;;;13.07;11.37;;;10.40;99.90;;;;;;5074643;28;20872;-70
2024/03/11 02:57:25;;;;;;;14.03;12.03;;;10.40;99.90;;;;;;5074511;28;20534;-69
2024/03/11 02:59:53;;;;;;;12.67;10.80;;;10.40;99.90;;;;;;5074479;28;20534;-69
2024/03/11 03:02:19;;;;;;;13.00;11.07;;;10.40;99.90;;;;;;5074410;28;20474;-70
2024/03/11 03:04:46;;;;;;;15.47;11.50;;;10.40;99.90;;;;;;5074314;28;20949;-70
2024/03/11 03:07:13;;;;;;;14.47;11.13;;;10.40;99.90;;;;;;5074073;28;20587;-70
2024/03/11 03:09:40;;;;;;;15.50;11.37;;;10.40;99.90;;;;;;5074317;28;20444;-70
2024/03/11 03:12:09;;;;;;;12.90;11.60;;;10.40;99.90;;;;;;5074304;28;20447;-70
2024/03/11 03:14:36;;;;;;;14.20;11.17;;;10.40;99.90;;;;;;5074099;28;20481;-70
2024/03/11 03:17:04;;;;;;;14.40;10.63;;;10.40;99.90;;;;;;5074059;28;20451;-70
2024/03/11 03:19:30;;;;;;;12.93;11.37;;;10.40;99.90;;;;;;5073806;28;20538;-69
2024/03/11 03:21:57;;;;;;;15.43;12.33;;;10.40;99.90;;;;;;5073210;28;20450;-70
2024/03/11 03:24:23;;;;;;;13.40;10.80;;;10.40;99.90;;;;;;5073921;28;20538;-70
2024/03/11 03:26:50;;;;;;;13.80;10.80;;;10.40;99.90;;;;;;5073804;28;20484;-70
2024/03/11 03:29:16;;;;;;;14.27;10.80;;;10.40;99.90;;;;;;5073826;28;20530;-70
2024/03/11 03:31:43;;;;;;;13.33;11.73;;;10.40;99.90;;;;;;5073765;28;20535;-70
2024/03/11 03:34:10;;;;;;;13.43;10.77;;;10.40;99.90;;;;;;5073613;28;20530;-69
2024/03/11 03:36:38;;;;;;;14.00;11.30;;;10.40;99.90;;;;;;5073523;28;21014;-70
2024/03/11 03:39:05;;;;;;;17.60;12.10;;;10.40;99.90;;;;;;5073321;28;20998;-69
2024/03/11 03:41:31;;;;;;;13.03;10.97;;;10.30;99.90;;;;;;5073654;28;20439;-70
2024/03/11 03:43:59;;;;;;;14.50;11.53;;;10.30;99.90;;;;;;5073506;28;20535;-70
2024/03/11 03:46:25;;;;;;;16.27;11.23;;;10.40;99.90;;;;;;5073416;28;21012;-70
2024/03/11 03:48:51;;;;;;;12.60;10.87;;;10.40;99.90;;;;;;5073365;28;20459;-70
2024/03/11 03:51:19;;;;;;;12.03;10.57;;;10.40;99.90;;;;;;5073492;28;20475;-70
2024/03/11 03:53:46;;;;;;;13.10;10.40;;;10.40;99.90;;;;;;5073425;28;20475;-70
2024/03/11 03:56:12;;;;;;;14.90;11.90;;;10.40;99.90;;;;;;5073334;28;20846;-70
2024/03/11 03:58:39;;;;;;;15.50;11.80;;;10.40;99.90;;;;;;5073278;28;20445;-70
2024/03/11 04:01:05;;;;;;;14.17;11.30;;;10.40;99.90;;;;;;5073265;28;20443;-70
2024/03/11 04:03:34;;;;;;;12.67;10.30;;;10.40;99.90;;;;;;5073097;28;20467;-70
2024/03/11 04:06:00;;;;;;;12.50;11.17;;;10.30;99.90;;;;;;5073188;28;20467;-70
2024/03/11 04:08:29;;;;;;;15.20;10.53;;;10.30;99.90;;;;;;5073112;28;20538;-69
2024/03/11 04:10:55;;;;;;;14.43;11.20;;;10.40;99.90;;;;;;5073275;28;20509;-70
2024/03/11 04:13:22;;;;;;;14.37;11.00;;;10.40;99.90;;;;;;5073096;28;20537;-70
2024/03/11 04:15:49;;;;;;;13.60;11.80;;;10.40;99.90;;;;;;5072935;28;20505;-69
2024/03/11 04:18:16;;;;;;;13.40;11.50;;;10.40;99.90;;;;;;5072945;28;20475;-70
2024/03/11 04:20:43;;;;;;;13.50;11.10;;;10.30;99.90;;;;;;5073105;28;20542;-70
2024/03/11 04:23:12;;;;;;;11.90;10.70;;;10.40;99.90;;;;;;5073074;28;20444;-70
2024/03/11 04:25:41;;;;;;;12.53;11.30;;;10.40;99.90;;;;;;5072935;28;20448;-70
2024/03/11 04:28:08;;;;;;;11.80;10.23;;;10.40;99.90;;;;;;5072896;28;20448;-70
2024/03/11 04:30:38;;;;;;;12.50;10.53;;;10.40;99.90;;;;;;5072840;28;20447;-70
2024/03/11 04:33:06;;;;;;;17.27;10.97;;;10.40;99.90;;;;;;5072879;28;20539;-70
2024/03/11 04:35:34;;;;;;;13.57;11.60;;;10.50;99.90;;;;;;5072957;28;20486;-69
2024/03/11 04:38:03;;;;;;;13.87;11.50;;;10.40;99.90;;;;;;5072847;28;20458;-70
2024/03/11 04:40:32;;;;;;;16.97;11.70;;;10.40;99.90;;;;;;5072625;28;20520;-70
2024/03/11 04:43:00;;;;;;;16.67;11.80;;;10.30;99.90;;;;;;5072665;28;20447;-69
2024/03/11 04:45:28;;;;;;;12.20;10.10;;;10.30;99.90;;;;;;5072948;28;20446;-70
2024/03/11 04:47:57;;;;;;;12.97;11.27;;;10.40;99.90;;;;;;5072734;28;20489;-69
2024/03/11 04:50:25;;;;;;;12.17;10.97;;;10.40;99.90;;;;;;5072816;28;20496;-69
2024/03/11 04:52:51;;;;;;;15.17;11.70;;;10.30;99.90;;;;;;5072686;28;20447;-70
2024/03/11 04:55:18;;;;;;;14.33;11.57;;;10.30;99.90;;;;;;5072544;28;20439;-70
2024/03/11 04:57:45;;;;;;;13.00;11.60;;;10.30;99.90;;;;;;5072541;28;20458;-70
2024/03/11 05:00:14;;;;;;;14.80;11.63;;;10.40;99.90;;;;;;5072728;28;20448;-70
2024/03/11 05:02:41;;;;;;;13.10;11.60;;;10.40;99.90;;;;;;5072465;28;21022;-70
2024/03/11 05:05:10;;;;;;;14.87;12.17;;;10.40;99.90;;;;;;5072635;28;20467;-70
2024/03/11 05:07:37;;;;;;;12.80;11.50;;;10.40;99.90;;;;;;5072472;28;20479;-70
2024/03/11 05:10:04;;;;;;;13.70;11.60;;;10.40;99.90;;;;;;5072358;28;20447;-69
2024/03/11 05:12:31;;;;;;;13.27;11.87;;;10.40;99.90;;;;;;5072638;28;20538;-70
2024/03/11 05:14:58;;;;;;;15.30;11.40;;;10.40;99.90;;;;;;5072552;28;20493;-69
2024/03/11 05:17:25;;;;;;;15.90;12.70;;;10.40;99.90;;;;;;5072477;28;20448;-70
2024/03/11 05:19:52;;;;;;;14.00;11.30;;;10.40;99.90;;;;;;5072424;28;20450;-70
2024/03/11 05:22:19;;;;;;;13.67;11.40;;;10.40;99.90;;;;;;5072351;28;20444;-70
2024/03/11 05:24:46;;;;;;;14.53;12.27;;;10.40;99.90;;;;;;5072240;28;20440;-70
2024/03/11 05:27:12;;;;;;;13.73;11.77;;;10.40;99.90;;;;;;5072361;28;21056;-70
2024/03/11 05:29:39;;;;;;;14.30;11.50;;;10.40;99.90;;;;;;5072329;28;20447;-70
2024/03/11 05:32:08;;;;;;;13.13;11.70;;;10.40;99.90;;;;;;5072396;28;20486;-70
2024/03/11 05:34:36;;;;;;;14.10;11.20;;;10.40;99.90;;;;;;5072276;28;20444;-70
2024/03/11 05:37:06;;;;;;;12.83;10.73;;;10.40;99.90;;;;;;5072175;28;20446;-69
2024/03/11 05:39:33;;;;;;;12.70;10.63;;;10.40;99.90;;;;;;5072170;28;20488;-70
2024/03/11 05:41:59;;;;;;;14.23;11.00;;;10.40;99.90;;;;;;5072161;28;20450;-69
2024/03/11 05:44:26;;;;;;;11.50;10.40;;;10.30;99.90;;;;;;5072253;28;20470;-70
2024/03/11 05:46:52;;;;;;;12.30;10.60;;;10.30;99.90;;;;;;5074693;28;20481;-70
2024/03/11 05:49:19;;;;;;;13.80;11.57;;;10.30;99.90;;;;;;5075668;28;20523;-70
2024/03/11 05:51:46;;;;;;;16.00;11.40;;;10.30;99.90;;;;;;5075490;28;20482;-70
2024/03/11 05:54:17;;;;;;;14.40;12.90;;;10.30;99.90;;;;;;5075726;28;20530;-70
2024/03/11 05:56:53;;;;;;;15.67;11.30;;;10.30;99.90;;;;;;5075680;28;20456;-70
2024/03/11 05:59:21;;;;;;;14.20;12.03;;;10.40;99.90;;;;;;5075381;28;20945;-70
2024/03/11 06:01:48;;;;;;;13.00;11.50;;;10.40;99.90;;;;;;5075395;28;20530;-70
2024/03/11 06:04:14;;;;;;;14.83;11.90;;;10.40;99.90;;;;;;5075341;28;20474;-69
2024/03/11 06:06:44;;;;;;;16.17;12.23;;;10.40;99.90;;;;;;5075527;28;20562;-70
2024/03/11 06:09:14;;;;;;;14.80;10.87;;;10.40;99.90;;;;;;5075397;28;20784;-70
2024/03/11 06:11:41;;;;;;;14.10;12.60;;;10.40;99.90;;;;;;5075073;28;20497;-70
2024/03/11 06:14:08;;;;;;;14.50;11.30;;;10.40;99.90;;;;;;5075087;28;20448;-70
2024/03/11 06:16:34;;;;;;;12.77;11.30;;;10.40;99.90;;;;;;5075092;28;20443;-69
2024/03/11 06:19:01;;;;;;;13.47;12.07;;;10.50;99.90;;;;;;5074996;28;20443;-69
2024/03/11 06:21:28;;;;;;;12.00;10.60;;;10.50;99.90;;;;;;5075183;28;20447;-70
2024/03/11 06:23:55;;;;;;;13.23;10.80;;;10.50;99.90;;;;;;5075103;28;20530;-70
2024/03/11 06:26:23;;;;;;;12.97;11.67;;;10.50;99.90;;;;;;5074927;28;20443;-70
2024/03/11 06:28:49;;;;;;;12.43;11.20;;;10.50;99.90;;;;;;5074869;28;20529;-70
2024/03/11 06:31:17;;;;;;;14.33;11.03;;;10.50;99.90;;;;;;5074732;28;20475;-70
2024/03/11 06:33:43;;;;;;;14.07;10.90;;;10.50;99.90;;;;;;5074980;28;20501;-70
2024/03/11 06:36:10;;;;;;;15.90;12.40;;;10.60;99.90;;;;;;5074933;28;20447;-69
2024/03/11 06:38:36;;;;;;;16.37;11.47;;;10.60;99.90;;;;;;5074560;28;20543;-70
2024/03/11 06:41:03;;;;;;;13.13;11.40;;;10.60;99.90;;;;;;5074779;28;20467;-70
2024/03/11 06:43:32;;;;;;;11.50;10.07;;;10.60;99.90;;;;;;5074555;28;20541;-70
2024/03/11 06:45:58;;;;;;;11.93;10.67;;;10.60;99.90;;;;;;5074436;28;20443;-70
2024/03/11 06:48:25;;;;;;;13.37;11.13;;;10.70;99.90;;;;;;5074624;28;20574;-69
2024/03/11 06:50:52;;;;;;;12.30;10.77;;;10.70;99.90;;;;;;5074490;28;20534;-69
2024/03/11 06:53:19;;;;;;;11.60;10.40;;;10.70;99.90;;;;;;5074522;28;20447;-70
2024/03/11 06:55:45;;;;;;;12.10;10.90;;;10.70;99.90;;;;;;5074386;28;20455;-70
2024/03/11 06:58:12;;;;;;;11.63;10.43;;;10.70;99.90;;;;;;5073145;28;20534;-70
2024/03/11 07:00:40;;;;;;;12.80;10.60;;;10.70;99.90;;;;;;5074609;28;20574;-70
2024/03/11 07:03:07;;;;;;;13.77;10.20;;;10.80;99.90;;;;;;5074355;28;20447;-70
2024/03/11 07:05:34;;;;;;;13.33;9.67;;;10.80;99.90;;;;;;5074299;28;20447;-70
2024/03/11 07:08:06;;;;;;;12.60;10.50;;;10.80;99.90;;;;;;5074241;28;20919;-70
2024/03/11 07:10:33;;;;;;;13.97;11.40;;;10.80;99.90;;;;;;5074219;28;20479;-70
2024/03/11 07:12:59;;;;;;;12.43;10.97;;;10.90;99.90;;;;;;5073941;28;20471;-70
2024/03/11 07:15:26;;;;;;;12.37;10.40;;;11.00;99.90;;;;;;5074107;28;20535;-70
2024/03/11 07:17:54;;;;;;;15.63;11.23;;;11.00;99.90;;;;;;5074102;28;20803;-70
2024/03/11 07:20:23;;;;;;;12.37;10.67;;;10.90;99.90;;;;;;5073650;28;21012;-70
2024/03/11 07:22:51;;;;;;;11.63;10.20;;;10.90;99.90;;;;;;5073831;28;20444;-70
2024/03/11 07:25:17;;;;;;;11.33;10.13;;;10.90;99.90;;;;;;5073711;28;20439;-70
2024/03/11 07:27:47;;;;;;;12.87;10.80;;;10.90;99.90;;;;;;5073715;28;20479;-70
2024/03/11 07:30:18;;;;;;;15.90;11.40;;;10.90;99.90;;;;;;5073823;28;20500;-70
2024/03/11 07:32:45;;;;;;;15.83;10.07;;;10.90;99.90;;;;;;5073824;28;20534;-70
2024/03/11 07:35:14;;;;;;;19.93;10.20;;;11.00;99.90;;;;;;5073467;28;21014;-70
2024/03/11 07:37:42;;;;;;;13.30;11.13;;;11.10;99.90;;;;;;5073587;28;20448;-70
2024/03/11 07:40:11;;;;;;;12.07;10.50;;;11.20;99.90;;;;;;5073335;28;20482;-70
2024/03/11 07:42:38;;;;;;;10.77;9.70;;;11.10;99.90;;;;;;5073616;28;20483;-70
2024/03/11 07:45:10;;;;;;;13.37;10.70;;;11.30;99.90;;;;;;5073573;28;20443;-70
2024/03/11 07:47:37;;;;;;;11.20;9.97;;;11.40;99.90;;;;;;5073429;28;20989;-70
2024/03/11 07:50:05;;;;;;;11.00;9.90;;;11.40;99.90;;;;;;5073386;28;20439;-70
2024/03/11 07:52:34;;;;;;;12.20;10.93;;;11.40;99.90;;;;;;5073244;28;20446;-70
2024/03/11 07:55:02;;;;;;;11.90;10.30;;;11.40;99.90;;;;;;5073407;28;20772;-70
2024/03/11 07:57:29;;;;;;;14.67;11.37;;;11.50;99.90;;;;;;5073192;28;20443;-70
2024/03/11 07:59:55;;;;;;;14.90;11.57;;;11.50;99.90;;;;;;5073316;28;20526;-70
2024/03/11 08:02:22;;;;;;;12.13;10.83;;;11.50;99.90;;;;;;5073624;28;20473;-70
2024/03/11 08:04:48;;;;;;;11.87;10.37;;;11.50;99.90;;;;;;5072463;28;20535;-71
2024/03/11 08:07:15;;;;;;;12.50;10.00;;;11.60;99.90;;;;;;5072655;28;20978;-72
2024/03/11 08:09:44;;;;;;;11.77;10.50;;;11.60;99.90;;;;;;5071973;28;20805;-69
2024/03/11 08:12:10;;;;;;;11.37;10.20;;;11.60;99.90;;;;;;5072640;28;20444;-74
2024/03/11 08:14:37;;;;;;;12.13;10.50;;;11.60;99.90;;;;;;5072547;28;20444;-68
2024/03/11 08:17:06;;;;;;;13.13;11.73;;;11.60;99.90;;;;;;5072389;28;20526;-68
2024/03/11 08:19:33;;;;;;;15.50;11.50;;;11.80;99.90;;;;;;5072002;28;20831;-68
2024/03/11 08:21:59;;;;;;;16.00;11.60;;;11.80;99.90;;;;;;5072364;28;20467;-72
2024/03/11 08:24:26;;;;;;;14.50;12.80;;;11.90;99.90;;;;;;5072364;28;20536;-69
2024/03/11 08:26:54;;;;;;;13.67;12.27;;;12.00;99.90;;;;;;5072215;28;20622;-73
2024/03/11 08:29:20;;;;;;;13.00;11.07;;;12.20;99.90;;;;;;5072279;28;20479;-68
2024/03/11 08:31:47;;;;;;;16.23;12.07;;;12.30;99.90;;;;;;5072036;28;20985;-70
2024/03/11 08:34:13;;;;;;;14.87;12.30;;;12.40;99.90;;;;;;5071937;28;20466;-68
2024/03/11 08:36:41;;;;;;;14.17;12.67;;;12.50;99.90;;;;;;5072099;28;21008;-70
2024/03/11 08:39:10;;;;;;;13.70;12.20;;;12.60;99.90;;;;;;5072035;28;20474;-67
2024/03/11 08:41:37;;;;;;;14.47;12.80;;;12.50;99.90;;;;;;5072244;28;20451;-69
2024/03/11 08:44:07;;;;;;;17.53;14.43;;;12.50;99.90;;;;;;5072269;28;20482;-71
2024/03/11 08:46:34;;;;;;;15.77;13.57;;;12.40;99.90;;;;;;5072134;28;20440;-68
2024/03/11 08:49:00;;;;;;;17.57;14.43;;;12.30;99.90;;;;;;5071825;28;20557;-70
2024/03/11 08:51:27;;;;;;;19.70;14.80;;;12.30;99.90;;;;;;5072524;28;20538;-72
2024/03/11 08:53:54;;;;;;;16.97;15.17;;;12.30;99.90;;;;;;5072603;28;20475;-70
2024/03/11 08:56:21;;;;;;;17.83;16.03;;;12.30;99.90;;;;;;5072526;28;20459;-71
2024/03/11 08:58:50;;;;;;;17.50;15.60;;;12.40;99.90;;;;;;5072495;28;20463;-68
2024/03/11 09:01:19;;;;;;;19.17;17.17;;;12.50;99.90;;;;;;5072340;28;20444;-64
2024/03/11 09:03:46;;;;;;;21.77;19.23;;;12.60;99.90;;;;;;5072510;28;20849;-64
2024/03/11 09:06:12;;;;;;;20.10;18.00;;;12.60;99.90;;;;;;5071790;28;20431;-72
2024/03/11 09:08:39;;;;;;;23.83;19.63;;;12.70;99.90;;;;;;5071988;28;21078;-70
2024/03/11 09:11:05;;;;;;;21.70;18.67;;;12.70;99.90;;;;;;5072044;28;20544;-71
2024/03/11 09:13:32;;;;;;;19.73;17.83;;;12.80;99.90;;;;;;5071707;28;20526;-71
2024/03/11 09:15:59;;;;;;;19.77;17.77;;;12.90;99.90;;;;;;5071832;28;20904;-70
2024/03/11 09:18:27;;;;;;;18.80;17.00;;;13.00;99.90;;;;;;5072043;28;20450;-68
2024/03/11 09:20:55;;;;;;;18.87;16.97;;;13.10;99.90;;;;;;5073314;28;20800;-65
2024/03/11 09:23:22;;;;;;;18.10;16.40;;;13.20;99.90;;;;;;5075677;28;20834;-69
2024/03/11 09:25:48;;;;;;;21.57;17.87;;;13.30;99.90;;;;;;5075703;28;20527;-66
2024/03/11 09:28:17;;;;;;;18.67;16.80;;;13.40;99.90;;;;;;5075354;28;20463;-66
2024/03/11 09:30:44;;;;;;;18.43;16.60;;;13.50;99.90;;;;;;5075759;28;20447;-66
2024/03/11 09:33:11;;;;;;;19.80;17.70;;;13.70;99.90;;;;;;5075153;28;20439;-63
2024/03/11 09:35:39;;;;;;;20.10;17.77;;;13.70;99.90;;;;;;5075446;28;20492;-68
2024/03/11 09:38:05;;;;;;;20.07;18.00;;;13.70;99.90;;;;;;5075533;28;20445;-66
2024/03/11 09:40:32;;;;;;;20.93;18.73;;;13.60;99.90;;;;;;5075138;28;20996;-65
2024/03/11 09:43:00;;;;;;;22.10;19.10;;;13.50;99.90;;;;;;5075199;28;20543;-64
2024/03/11 09:45:28;;;;;;;19.60;17.23;;;13.40;99.90;;;;;;5075259;28;20439;-67
2024/03/11 09:47:56;;;;;;;20.30;18.20;;;13.30;99.90;;;;;;5072585;28;20831;-68
2024/03/11 09:50:26;;;;;;;20.60;18.50;;;13.30;99.90;;;;;;5075308;28;20443;-67
2024/03/11 09:52:58;;;;;;;21.80;18.53;;;13.30;99.90;;;;;;5075319;28;20436;-66
2024/03/11 09:55:28;;;;;;;19.73;17.73;;;13.40;99.90;;;;;;5075081;28;20444;-72
2024/03/11 09:57:58;;;;;;;22.43;17.83;;;13.40;99.90;;;;;;5075169;28;20454;-66
2024/03/11 10:00:27;;;;;;;19.80;17.90;;;13.30;99.90;;;;;;5075085;28;20440;-68
2024/03/11 10:02:59;;;;;;;18.87;16.87;;;13.20;99.90;;;;;;5075048;28;20435;-64
2024/03/11 10:05:27;;;;;;;19.97;17.90;;;13.20;99.90;;;;;;5074915;28;20848;-66
2024/03/11 10:07:57;;;;;;;17.70;15.80;;;13.20;99.90;;;;;;5074656;28;20467;-68
2024/03/11 10:10:24;;;;;;;18.20;16.40;;;13.30;99.90;;;;;;5074992;28;20479;-70
2024/03/11 10:12:52;;;;;;;22.40;19.10;;;13.30;99.90;;;;;;5074796;28;20444;-72
2024/03/11 10:15:28;;;;;;;19.70;17.00;;;13.30;99.90;;;;;;5074901;28;20530;-68
2024/03/11 10:17:56;;;;;;;18.17;16.43;;;13.30;99.90;;;;;;5074601;28;20446;-70
2024/03/11 10:20:24;;;;;;;19.47;17.20;;;13.40;99.90;;;;;;5074510;28;20443;-65
2024/03/11 10:22:50;;;;;;;18.57;16.33;;;13.50;99.90;;;;;;5074545;28;20990;-66
2024/03/11 10:25:27;;;;;;;21.00;17.37;;;13.60;99.90;;;;;;5074654;28;20534;-67
2024/03/11 10:27:55;;;;;;;18.27;16.43;;;13.70;99.90;;;;;;5074352;28;20467;-72
2024/03/11 10:30:23;;;;;;;18.33;16.10;;;13.80;99.90;;;;;;5074501;28;20443;-65
2024/03/11 10:32:55;;;;;;;17.03;15.27;;;13.90;99.90;;;;;;5074033;28;20493;-66
2024/03/11 10:35:22;;;;;;;18.07;16.30;;;14.00;99.90;;;;;;5072522;28;20444;-64
2024/03/11 10:37:50;;;;;;;19.07;17.37;;;14.00;99.90;;;;;;5074444;28;20444;-66
2024/03/11 10:40:18;;;;;;;18.40;15.30;;;14.20;99.90;;;;;;5071546;28;20536;-67
2024/03/11 10:42:53;;;;;;;16.23;14.73;;;14.40;99.90;;;;;;5074316;28;20506;-68
2024/03/11 10:45:30;;;;;;;16.67;14.97;;;14.70;99.90;;;;;;5071735;28;20474;-68
2024/03/11 10:48:00;;;;;;;17.47;15.80;;;14.80;99.90;;;;;;5071570;28;20471;-65
2024/03/11 10:50:28;;;;;;;15.80;14.20;;;14.80;99.90;;;;;;5074149;28;20435;-65
2024/03/11 10:52:57;;;;;;;17.23;15.60;;;14.80;99.90;;;;;;5074104;28;20444;-65
2024/03/11 10:55:26;;;;;;;15.90;14.40;;;15.00;99.90;;;;;;5074327;28;20538;-62
2024/03/11 10:57:56;;;;;;;17.20;15.00;;;15.20;99.90;;;;;;5074017;28;20963;-63
2024/03/11 11:00:23;;;;;;;15.33;13.83;;;15.40;99.90;;;;;;5073581;28;20452;-66
2024/03/11 11:02:57;;;;;;;16.20;14.57;;;15.50;99.90;;;;;;5071144;28;20440;-67
2024/03/11 11:05:32;;;;;;;16.50;14.80;;;15.60;99.90;;;;;;5071887;28;20458;-66
2024/03/11 11:08:02;;;;;;;14.73;13.27;;;15.70;99.90;;;;;;5070766;28;20448;-69
2024/03/11 11:10:29;;;;;;;16.10;14.50;;;15.70;99.90;;;;;;5073449;28;20489;-68
2024/03/11 11:12:59;;;;;;;14.43;13.13;;;15.70;99.90;;;;;;5073669;28;20442;-68
2024/03/11 11:15:28;;;;;;;18.13;16.33;;;15.90;99.90;;;;;;5074038;28;20442;-67
2024/03/11 11:17:55;;;;;;;16.63;15.07;;;15.70;99.90;;;;;;5073373;28;20440;-66
2024/03/11 11:20:37;;;;;;;16.47;14.87;;;15.80;99.90;;;;;;5073467;28;20530;-67
2024/03/11 11:23:05;;;;;;;17.53;15.73;;;15.70;99.90;;;;;;5071239;28;20517;-65
2024/03/11 11:25:39;;;;;;;16.50;14.90;;;15.50;99.90;;;;;;5073481;28;20441;-68
2024/03/11 11:28:08;;;;;;;17.70;15.93;;;15.60;99.90;;;;;;5071410;28;20439;-68
2024/03/11 11:30:36;;;;;;;16.80;15.03;;;15.60;99.90;;;;;;5073126;28;20562;-66
2024/03/11 11:33:03;;;;;;;17.70;15.47;;;15.60;99.90;;;;;;5073200;28;20450;-62
2024/03/11 11:35:34;;;;;;;17.10;15.40;;;15.50;99.90;;;;;;5073464;28;20439;-61
2024/03/11 11:38:29;;;;;;;16.43;14.73;;;15.30;99.90;;;;;;5073512;28;20530;-61
2024/03/11 11:40:57;;;;;;;15.80;14.30;;;15.20;99.90;;;;;;5073522;28;20509;-61
2024/03/11 11:43:44;;;;;;;17.23;15.23;;;15.10;99.90;;;;;;5072603;28;20450;-61
2024/03/11 11:46:11;;;;;;;14.60;13.17;;;15.00;99.90;;;;;;5073494;28;20535;-64
2024/03/11 11:48:38;;;;;;;16.07;14.47;;;14.90;99.90;;;;;;5073437;28;20552;-64
2024/03/11 11:51:06;;;;;;;14.63;13.20;;;14.70;99.90;;;;;;5072706;28;20524;-65
2024/03/11 11:53:36;;;;;;;16.70;15.00;;;14.60;99.90;;;;;;5070516;28;20436;-64
2024/03/11 11:56:04;;;;;;;16.07;14.57;;;14.50;99.90;;;;;;5072785;28;20463;-64
2024/03/11 11:58:30;;;;;;;15.60;14.10;;;14.60;99.90;;;;;;5069741;28;20505;-65
2024/03/11 12:00:59;;;;;;;19.10;13.60;;;14.60;99.90;;;;;;5072559;28;20911;-69
2024/03/11 12:03:30;;;;;;;14.40;12.90;;;14.60;99.90;;;;;;5072524;28;20460;-67
2024/03/11 12:06:11;;;;;;;15.67;14.03;;;14.60;99.90;;;;;;5072639;28;20435;-68
2024/03/11 12:08:39;;;;;;;14.00;12.60;;;14.60;99.90;;;;;;5071002;28;20471;-66
2024/03/11 12:11:10;;;;;;;14.37;12.97;;;14.60;99.90;;;;;;5072973;28;20439;-70
2024/03/11 12:13:36;;;;;;;12.83;11.63;;;14.70;99.90;;;;;;5073073;28;20443;-65
2024/03/11 12:16:09;;;;;;;12.90;11.60;;;14.70;99.90;;;;;;5073001;28;20538;-68
2024/03/11 12:18:36;;;;;;;12.33;11.07;;;14.80;99.90;;;;;;5072911;28;20853;-68
2024/03/11 12:21:08;;;;;;;12.93;11.60;;;14.90;99.90;;;;;;5072823;28;20444;-68
2024/03/11 12:23:35;;;;;;;12.93;11.63;;;15.10;99.90;;;;;;5072775;28;20457;-69
2024/03/11 12:26:03;;;;;;;11.93;10.83;;;15.30;99.90;;;;;;5072963;28;20860;-66
2024/03/11 12:28:30;;;;;;;12.40;10.80;;;15.50;99.90;;;;;;5072593;28;21033;-64
2024/03/11 12:30:57;;;;;;;9.70;8.80;;;15.60;99.90;;;;;;5072859;28;20450;-69